sensor_id;sensor_type;location;lat;lon;timestamp;pressure;altitude;pressure_sealevel;temperature;humidity
64460;BME280;50828;53.756;21.140;2023-02-08T00:01:31;102498.58;;;0.75;67.45
64460;BME280;50828;53.756;21.140;2023-02-08T00:06:39;102503.83;;;0.77;67.33
64460;BME280;50828;53.756;21.140;2023-02-08T00:11:47;102520.11;;;0.76;67.19
64460;BME280;50828;53.756;21.140;2023-02-08T00:16:54;102515.56;;;0.75;67.26
64460;BME280;50828;53.756;21.140;2023-02-08T00:22:02;102519.89;;;0.75;67.18
64460;BME280;50828;53.756;21.140;2023-02-08T00:27:09;102522.13;;;0.75;67.26
64460;BME280;50828;53.756;21.140;2023-02-08T00:32:17;102517.27;;;0.69;67.40
64460;BME280;50828;53.756;21.140;2023-02-08T00:37:25;102522.42;;;0.73;67.37
64460;BME280;50828;53.756;21.140;2023-02-08T00:42:32;102521.35;;;0.71;67.25
64460;BME280;50828;53.756;21.140;2023-02-08T00:47:40;102516.11;;;0.71;67.39
64460;BME280;50828;53.756;21.140;2023-02-08T00:52:48;102506.86;;;0.69;67.31
64460;BME280;50828;53.756;21.140;2023-02-08T00:57:56;102505.21;;;0.71;67.34
64460;BME280;50828;53.756;21.140;2023-02-08T01:03:04;102504.84;;;0.71;67.09
64460;BME280;50828;53.756;21.140;2023-02-08T01:08:12;102501.64;;;0.69;67.22
64460;BME280;50828;53.756;21.140;2023-02-08T01:13:20;102498.61;;;0.67;67.23
64460;BME280;50828;53.756;21.140;2023-02-08T01:18:28;102498.35;;;0.65;67.19
64460;BME280;50828;53.756;21.140;2023-02-08T01:23:36;102500.94;;;0.65;67.05
64460;BME280;50828;53.756;21.140;2023-02-08T01:28:44;102499.86;;;0.64;66.94
64460;BME280;50828;53.756;21.140;2023-02-08T01:33:52;102499.24;;;0.61;67.10
64460;BME280;50828;53.756;21.140;2023-02-08T01:39:00;102496.17;;;0.58;67.07
64460;BME280;50828;53.756;21.140;2023-02-08T01:49:33;102499.91;;;0.51;67.06
64460;BME280;50828;53.756;21.140;2023-02-08T01:54:43;102494.26;;;0.44;67.02
64460;BME280;50828;53.756;21.140;2023-02-08T01:59:57;102498.58;;;0.43;67.08
64460;BME280;50828;53.756;21.140;2023-02-08T02:05:18;102501.90;;;0.40;67.02
64460;BME280;50828;53.756;21.140;2023-02-08T02:10:28;102499.17;;;0.37;67.12
64460;BME280;50828;53.756;21.140;2023-02-08T02:15:37;102496.92;;;0.32;67.01
64460;BME280;50828;53.756;21.140;2023-02-08T02:20:56;102503.18;;;0.29;66.79
64460;BME280;50828;53.756;21.140;2023-02-08T02:31:57;102505.94;;;0.20;66.73
64460;BME280;50828;53.756;21.140;2023-02-08T02:37:12;102509.17;;;0.14;66.80
64460;BME280;50828;53.756;21.140;2023-02-08T02:42:28;102507.04;;;0.08;66.81
64460;BME280;50828;53.756;21.140;2023-02-08T02:48:04;102500.92;;;0.03;66.93
64460;BME280;50828;53.756;21.140;2023-02-08T02:53:18;102502.02;;;-0.09;66.95
64460;BME280;50828;53.756;21.140;2023-02-08T02:58:28;102523.46;;;-0.05;67.02
64460;BME280;50828;53.756;21.140;2023-02-08T03:03:37;102526.59;;;-0.09;67.04
64460;BME280;50828;53.756;21.140;2023-02-08T03:09:01;102538.60;;;-0.12;67.04
64460;BME280;50828;53.756;21.140;2023-02-08T03:14:34;102544.57;;;-0.14;67.08
64460;BME280;50828;53.756;21.140;2023-02-08T03:19:54;102546.70;;;-0.17;66.96
64460;BME280;50828;53.756;21.140;2023-02-08T03:25:09;102550.92;;;-0.20;66.92
64460;BME280;50828;53.756;21.140;2023-02-08T03:30:21;102557.69;;;-0.23;67.00
64460;BME280;50828;53.756;21.140;2023-02-08T03:35:35;102566.04;;;-0.26;67.11
64460;BME280;50828;53.756;21.140;2023-02-08T03:40:46;102568.70;;;-0.29;67.00
64460;BME280;50828;53.756;21.140;2023-02-08T03:45:58;102575.23;;;-0.31;67.13
64460;BME280;50828;53.756;21.140;2023-02-08T03:51:10;102579.10;;;-0.33;67.06
64460;BME280;50828;53.756;21.140;2023-02-08T03:56:20;102580.04;;;-0.35;67.13
64460;BME280;50828;53.756;21.140;2023-02-08T04:01:37;102582.57;;;-0.37;67.31
64460;BME280;50828;53.756;21.140;2023-02-08T04:06:48;102588.79;;;-0.37;67.36
64460;BME280;50828;53.756;21.140;2023-02-08T04:11:55;102600.05;;;-0.37;67.33
64460;BME280;50828;53.756;21.140;2023-02-08T04:17:03;102606.96;;;-0.37;67.36
64460;BME280;50828;53.756;21.140;2023-02-08T04:22:11;102611.98;;;-0.37;67.35
64460;BME280;50828;53.756;21.140;2023-02-08T04:27:18;102610.79;;;-0.37;67.48
64460;BME280;50828;53.756;21.140;2023-02-08T04:32:26;102611.16;;;-0.36;67.53
64460;BME280;50828;53.756;21.140;2023-02-08T04:37:33;102615.02;;;-0.35;67.43
64460;BME280;50828;53.756;21.140;2023-02-08T04:42:41;102612.77;;;-0.35;67.31
64460;BME280;50828;53.756;21.140;2023-02-08T04:47:48;102609.88;;;-0.34;67.44
64460;BME280;50828;53.756;21.140;2023-02-08T04:52:56;102608.68;;;-0.33;67.49
64460;BME280;50828;53.756;21.140;2023-02-08T04:58:03;102612.33;;;-0.33;67.49
64460;BME280;50828;53.756;21.140;2023-02-08T05:03:11;102617.54;;;-0.33;67.26
64460;BME280;50828;53.756;21.140;2023-02-08T05:08:18;102620.49;;;-0.33;67.24
64460;BME280;50828;53.756;21.140;2023-02-08T05:13:25;102622.63;;;-0.31;67.24
64460;BME280;50828;53.756;21.140;2023-02-08T05:18:33;102617.79;;;-0.31;67.32
64460;BME280;50828;53.756;21.140;2023-02-08T05:23:40;102620.92;;;-0.31;67.35
64460;BME280;50828;53.756;21.140;2023-02-08T05:28:51;102617.65;;;-0.31;67.32
64460;BME280;50828;53.756;21.140;2023-02-08T05:33:59;102616.59;;;-0.31;67.28
64460;BME280;50828;53.756;21.140;2023-02-08T05:39:06;102621.95;;;-0.31;67.18
64460;BME280;50828;53.756;21.140;2023-02-08T05:44:14;102625.99;;;-0.30;67.19
64460;BME280;50828;53.756;21.140;2023-02-08T05:49:21;102627.60;;;-0.29;67.20
64460;BME280;50828;53.756;21.140;2023-02-08T05:54:29;102632.65;;;-0.28;67.16
64460;BME280;50828;53.756;21.140;2023-02-08T05:59:36;102634.58;;;-0.28;67.16
64460;BME280;50828;53.756;21.140;2023-02-08T06:04:44;102634.31;;;-0.29;67.03
64460;BME280;50828;53.756;21.140;2023-02-08T06:09:52;102639.13;;;-0.30;67.09
64460;BME280;50828;53.756;21.140;2023-02-08T06:14:59;102649.49;;;-0.31;66.87
64460;BME280;50828;53.756;21.140;2023-02-08T06:20:08;102650.62;;;-0.32;66.88
64460;BME280;50828;53.756;21.140;2023-02-08T06:25:17;102658.69;;;-0.34;66.80
64460;BME280;50828;53.756;21.140;2023-02-08T06:30:24;102667.14;;;-0.35;66.87
64460;BME280;50828;53.756;21.140;2023-02-08T06:35:32;102672.95;;;-0.37;66.84
64460;BME280;50828;53.756;21.140;2023-02-08T06:40:39;102674.84;;;-0.37;66.68
64460;BME280;50828;53.756;21.140;2023-02-08T06:45:47;102676.05;;;-0.37;66.67
64460;BME280;50828;53.756;21.140;2023-02-08T06:50:55;102676.17;;;-0.39;66.60
64460;BME280;50828;53.756;21.140;2023-02-08T06:56:02;102678.00;;;-0.40;66.58
64460;BME280;50828;53.756;21.140;2023-02-08T07:01:12;102674.30;;;-0.41;66.64
64460;BME280;50828;53.756;21.140;2023-02-08T07:06:20;102678.77;;;-0.42;66.66
64460;BME280;50828;53.756;21.140;2023-02-08T07:11:27;102683.04;;;-0.43;66.48
64460;BME280;50828;53.756;21.140;2023-02-08T07:16:35;102690.34;;;-0.43;66.49
64460;BME280;50828;53.756;21.140;2023-02-08T07:21:42;102692.15;;;-0.41;66.46
64460;BME280;50828;53.756;21.140;2023-02-08T07:26:50;102691.66;;;-0.40;66.57
64460;BME280;50828;53.756;21.140;2023-02-08T07:31:58;102690.50;;;-0.39;66.51
64460;BME280;50828;53.756;21.140;2023-02-08T07:37:06;102695.98;;;-0.37;66.46
64460;BME280;50828;53.756;21.140;2023-02-08T07:42:14;102700.73;;;-0.35;66.31
64460;BME280;50828;53.756;21.140;2023-02-08T07:47:30;102697.41;;;-0.32;66.39
64460;BME280;50828;53.756;21.140;2023-02-08T07:52:37;102697.55;;;-0.29;66.27
64460;BME280;50828;53.756;21.140;2023-02-08T07:57:47;102698.58;;;-0.26;66.15
64460;BME280;50828;53.756;21.140;2023-02-08T08:02:54;102702.94;;;-0.25;66.14
64460;BME280;50828;53.756;21.140;2023-02-08T08:08:02;102699.98;;;-0.22;66.24
64460;BME280;50828;53.756;21.140;2023-02-08T08:13:09;102699.59;;;-0.18;66.07
64460;BME280;50828;53.756;21.140;2023-02-08T08:18:17;102701.16;;;-0.14;66.09
64460;BME280;50828;53.756;21.140;2023-02-08T08:23:24;102695.85;;;-0.09;65.88
64460;BME280;50828;53.756;21.140;2023-02-08T08:28:33;102691.08;;;-0.04;65.75
64460;BME280;50828;53.756;21.140;2023-02-08T08:33:41;102692.55;;;-0.01;65.53
64460;BME280;50828;53.756;21.140;2023-02-08T08:38:48;102715.05;;;0.02;65.46
64460;BME280;50828;53.756;21.140;2023-02-08T08:43:57;102718.11;;;0.05;65.52
64460;BME280;50828;53.756;21.140;2023-02-08T08:49:04;102721.94;;;0.09;65.44
64460;BME280;50828;53.756;21.140;2023-02-08T08:54:12;102723.05;;;0.14;65.49
64460;BME280;50828;53.756;21.140;2023-02-08T08:59:19;102725.62;;;0.22;65.21
64460;BME280;50828;53.756;21.140;2023-02-08T09:04:27;102723.34;;;0.25;65.10
64460;BME280;50828;53.756;21.140;2023-02-08T09:09:35;102724.83;;;0.31;64.96
64460;BME280;50828;53.756;21.140;2023-02-08T09:14:43;102715.70;;;0.37;64.85
64460;BME280;50828;53.756;21.140;2023-02-08T09:19:51;102714.89;;;0.42;64.77
64460;BME280;50828;53.756;21.140;2023-02-08T09:24:58;102706.20;;;0.45;64.62
64460;BME280;50828;53.756;21.140;2023-02-08T09:30:08;102711.73;;;0.49;64.41
64460;BME280;50828;53.756;21.140;2023-02-08T09:35:17;102714.23;;;0.55;64.30
64460;BME280;50828;53.756;21.140;2023-02-08T09:40:27;102712.19;;;0.61;64.28
64460;BME280;50828;53.756;21.140;2023-02-08T09:45:47;102710.70;;;0.66;64.02
64460;BME280;50828;53.756;21.140;2023-02-08T09:51:08;102709.36;;;0.71;64.07
64460;BME280;50828;53.756;21.140;2023-02-08T09:56:20;102717.25;;;0.78;64.07
64460;BME280;50828;53.756;21.140;2023-02-08T10:01:34;102716.86;;;0.85;63.85
64460;BME280;50828;53.756;21.140;2023-02-08T10:06:43;102716.88;;;0.90;63.45
64460;BME280;50828;53.756;21.140;2023-02-08T10:11:57;102715.03;;;0.96;63.45
64460;BME280;50828;53.756;21.140;2023-02-08T10:17:42;102711.37;;;0.99;63.08
64460;BME280;50828;53.756;21.140;2023-02-08T10:23:01;102702.23;;;1.01;62.79
64460;BME280;50828;53.756;21.140;2023-02-08T10:28:28;102699.53;;;1.03;62.83
64460;BME280;50828;53.756;21.140;2023-02-08T10:33:44;102697.73;;;1.05;62.82
64460;BME280;50828;53.756;21.140;2023-02-08T10:38:57;102696.27;;;1.13;62.63
64460;BME280;50828;53.756;21.140;2023-02-08T10:44:08;102693.33;;;1.21;62.57
64460;BME280;50828;53.756;21.140;2023-02-08T10:49:24;102681.76;;;1.28;62.19
64460;BME280;50828;53.756;21.140;2023-02-08T10:54:38;102676.97;;;1.34;62.09
64460;BME280;50828;53.756;21.140;2023-02-08T10:59:50;102672.66;;;1.39;61.99
64460;BME280;50828;53.756;21.140;2023-02-08T11:05:04;102669.58;;;1.45;61.65
64460;BME280;50828;53.756;21.140;2023-02-08T11:10:23;102669.02;;;1.49;60.92
64460;BME280;50828;53.756;21.140;2023-02-08T11:15:42;102672.48;;;1.53;60.95
64460;BME280;50828;53.756;21.140;2023-02-08T11:20:54;102673.35;;;1.53;60.66
64460;BME280;50828;53.756;21.140;2023-02-08T11:26:14;102671.55;;;1.51;60.43
64460;BME280;50828;53.756;21.140;2023-02-08T11:31:23;102669.96;;;1.51;60.72
64460;BME280;50828;53.756;21.140;2023-02-08T11:36:33;102666.06;;;1.48;60.52
64460;BME280;50828;53.756;21.140;2023-02-08T11:41:43;102656.84;;;1.43;60.75
64460;BME280;50828;53.756;21.140;2023-02-08T11:46:52;102649.77;;;1.40;60.57
64460;BME280;50828;53.756;21.140;2023-02-08T11:52:01;102646.63;;;1.39;60.66
64460;BME280;50828;53.756;21.140;2023-02-08T11:57:17;102653.79;;;1.40;60.67
64460;BME280;50828;53.756;21.140;2023-02-08T12:02:36;102657.17;;;1.43;60.75
64460;BME280;50828;53.756;21.140;2023-02-08T12:08:06;102660.77;;;1.46;60.77
64460;BME280;50828;53.756;21.140;2023-02-08T12:13:32;102650.78;;;1.48;60.61
64460;BME280;50828;53.756;21.140;2023-02-08T12:19:08;102650.55;;;1.52;60.56
64460;BME280;50828;53.756;21.140;2023-02-08T12:24:33;102660.56;;;1.55;60.46
64460;BME280;50828;53.756;21.140;2023-02-08T12:29:48;102666.67;;;1.55;60.49
64460;BME280;50828;53.756;21.140;2023-02-08T12:35:19;102670.46;;;1.59;60.30
64460;BME280;50828;53.756;21.140;2023-02-08T12:40:55;102664.52;;;1.63;59.64
64460;BME280;50828;53.756;21.140;2023-02-08T12:46:27;102656.16;;;1.68;59.78
64460;BME280;50828;53.756;21.140;2023-02-08T12:51:44;102647.80;;;1.71;58.90
64460;BME280;50828;53.756;21.140;2023-02-08T12:56:55;102648.05;;;1.73;58.77
64460;BME280;50828;53.756;21.140;2023-02-08T13:02:13;102653.78;;;1.73;58.66
64460;BME280;50828;53.756;21.140;2023-02-08T13:07:28;102647.60;;;1.70;58.81
64460;BME280;50828;53.756;21.140;2023-02-08T13:12:40;102640.48;;;1.71;58.77
64460;BME280;50828;53.756;21.140;2023-02-08T13:17:53;102635.98;;;1.71;58.71
64460;BME280;50828;53.756;21.140;2023-02-08T13:23:05;102635.67;;;1.72;58.51
64460;BME280;50828;53.756;21.140;2023-02-08T13:28:21;102631.20;;;1.73;58.36
64460;BME280;50828;53.756;21.140;2023-02-08T13:33:38;102630.89;;;1.75;57.73
64460;BME280;50828;53.756;21.140;2023-02-08T13:39:06;102625.45;;;1.73;57.36
64460;BME280;50828;53.756;21.140;2023-02-08T13:44:21;102617.14;;;1.69;57.62
64460;BME280;50828;53.756;21.140;2023-02-08T13:49:54;102615.58;;;1.64;57.55
64460;BME280;50828;53.756;21.140;2023-02-08T14:01:20;102621.56;;;1.52;57.58
64460;BME280;50828;53.756;21.140;2023-02-08T14:06:30;102616.69;;;1.47;57.82
64460;BME280;50828;53.756;21.140;2023-02-08T14:11:44;102613.31;;;1.45;58.02
64460;BME280;50828;53.756;21.140;2023-02-08T14:17:13;102606.43;;;1.42;57.94
64460;BME280;50828;53.756;21.140;2023-02-08T14:22:27;102603.52;;;1.38;57.70
64460;BME280;50828;53.756;21.140;2023-02-08T14:27:42;102594.05;;;1.31;57.67
64460;BME280;50828;53.756;21.140;2023-02-08T14:33:14;102602.42;;;1.32;57.89
64460;BME280;50828;53.756;21.140;2023-02-08T14:39:05;102603.97;;;1.27;57.93
64460;BME280;50828;53.756;21.140;2023-02-08T14:50:10;102612.93;;;1.21;57.90
64460;BME280;50828;53.756;21.140;2023-02-08T14:55:25;102605.02;;;1.18;58.12
64460;BME280;50828;53.756;21.140;2023-02-08T15:00:36;102598.15;;;1.16;58.25
64460;BME280;50828;53.756;21.140;2023-02-08T15:06:03;102594.20;;;1.12;58.02
64460;BME280;50828;53.756;21.140;2023-02-08T15:11:22;102588.52;;;1.09;57.50
64460;BME280;50828;53.756;21.140;2023-02-08T15:16:35;102588.89;;;1.05;57.68
64460;BME280;50828;53.756;21.140;2023-02-08T15:21:47;102585.82;;;0.97;57.84
64460;BME280;50828;53.756;21.140;2023-02-08T15:26:57;102592.20;;;0.92;58.03
64460;BME280;50828;53.756;21.140;2023-02-08T15:32:13;102588.80;;;0.84;58.03
64460;BME280;50828;53.756;21.140;2023-02-08T15:37:23;102590.14;;;0.79;57.98
64460;BME280;50828;53.756;21.140;2023-02-08T15:42:34;102589.94;;;0.74;58.02
64460;BME280;50828;53.756;21.140;2023-02-08T15:47:42;102594.25;;;0.69;58.23
64460;BME280;50828;53.756;21.140;2023-02-08T15:52:58;102583.67;;;0.60;58.31
64460;BME280;50828;53.756;21.140;2023-02-08T15:58:13;102587.80;;;0.59;58.52
64460;BME280;50828;53.756;21.140;2023-02-08T16:03:24;102590.72;;;0.54;58.52
64460;BME280;50828;53.756;21.140;2023-02-08T16:08:35;102588.32;;;0.46;58.58
64460;BME280;50828;53.756;21.140;2023-02-08T16:13:47;102589.54;;;0.42;58.91
64460;BME280;50828;53.756;21.140;2023-02-08T16:19:01;102589.98;;;0.41;58.93
64460;BME280;50828;53.756;21.140;2023-02-08T16:24:21;102566.59;;;0.32;59.17
64460;BME280;50828;53.756;21.140;2023-02-08T16:29:30;102577.35;;;0.41;59.39
64460;BME280;50828;53.756;21.140;2023-02-08T16:34:39;102573.20;;;0.41;59.60
64460;BME280;50828;53.756;21.140;2023-02-08T16:39:57;102571.00;;;0.42;59.61
64460;BME280;50828;53.756;21.140;2023-02-08T16:45:22;102571.87;;;0.43;59.51
64460;BME280;50828;53.756;21.140;2023-02-08T16:50:34;102570.33;;;0.39;59.33
64460;BME280;50828;53.756;21.140;2023-02-08T16:55:48;102569.66;;;0.35;59.24
64460;BME280;50828;53.756;21.140;2023-02-08T17:00:55;102561.96;;;0.33;59.30
64460;BME280;50828;53.756;21.140;2023-02-08T17:06:05;102560.39;;;0.29;59.24
64460;BME280;50828;53.756;21.140;2023-02-08T17:11:14;102558.69;;;0.25;59.37
64460;BME280;50828;53.756;21.140;2023-02-08T17:16:23;102557.46;;;0.21;59.49
64460;BME280;50828;53.756;21.140;2023-02-08T17:21:31;102563.31;;;0.15;59.40
64460;BME280;50828;53.756;21.140;2023-02-08T17:26:41;102556.64;;;0.09;59.60
64460;BME280;50828;53.756;21.140;2023-02-08T17:31:49;102556.95;;;0.04;59.67
64460;BME280;50828;53.756;21.140;2023-02-08T17:36:57;102550.84;;;-0.01;59.64
64460;BME280;50828;53.756;21.140;2023-02-08T17:42:05;102547.94;;;-0.08;59.73
64460;BME280;50828;53.756;21.140;2023-02-08T17:47:13;102545.23;;;-0.15;59.75
64460;BME280;50828;53.756;21.140;2023-02-08T17:52:22;102545.16;;;-0.25;60.06
64460;BME280;50828;53.756;21.140;2023-02-08T17:57:31;102542.36;;;-0.29;60.12
64460;BME280;50828;53.756;21.140;2023-02-08T18:02:39;102550.77;;;-0.35;60.14
64460;BME280;50828;53.756;21.140;2023-02-08T18:07:48;102548.19;;;-0.43;60.02
64460;BME280;50828;53.756;21.140;2023-02-08T18:12:56;102545.55;;;-0.48;60.10
64460;BME280;50828;53.756;21.140;2023-02-08T18:18:03;102552.02;;;-0.54;60.22
64460;BME280;50828;53.756;21.140;2023-02-08T18:23:11;102548.75;;;-0.61;60.27
64460;BME280;50828;53.756;21.140;2023-02-08T18:28:20;102550.46;;;-0.66;60.36
64460;BME280;50828;53.756;21.140;2023-02-08T18:33:27;102546.39;;;-0.68;60.46
64460;BME280;50828;53.756;21.140;2023-02-08T18:38:35;102541.64;;;-0.70;60.68
64460;BME280;50828;53.756;21.140;2023-02-08T18:43:43;102537.16;;;-0.73;60.69
64460;BME280;50828;53.756;21.140;2023-02-08T18:48:51;102527.88;;;-0.76;60.68
64460;BME280;50828;53.756;21.140;2023-02-08T18:53:59;102516.94;;;-0.77;60.89
64460;BME280;50828;53.756;21.140;2023-02-08T18:59:07;102512.34;;;-0.79;61.07
64460;BME280;50828;53.756;21.140;2023-02-08T19:04:15;102503.21;;;-0.78;61.18
64460;BME280;50828;53.756;21.140;2023-02-08T19:09:23;102496.92;;;-0.75;61.22
64460;BME280;50828;53.756;21.140;2023-02-08T19:14:30;102489.83;;;-0.75;61.12
64460;BME280;50828;53.756;21.140;2023-02-08T19:19:38;102476.83;;;-0.76;61.25
64460;BME280;50828;53.756;21.140;2023-02-08T19:24:45;102472.09;;;-0.77;61.14
64460;BME280;50828;53.756;21.140;2023-02-08T19:29:53;102475.48;;;-0.79;61.30
64460;BME280;50828;53.756;21.140;2023-02-08T19:35:01;102468.63;;;-0.81;61.18
64460;BME280;50828;53.756;21.140;2023-02-08T19:40:11;102475.85;;;-0.82;61.46
64460;BME280;50828;53.756;21.140;2023-02-08T19:45:19;102475.03;;;-0.81;61.44
64460;BME280;50828;53.756;21.140;2023-02-08T19:50:26;102465.31;;;-0.82;61.33
64460;BME280;50828;53.756;21.140;2023-02-08T19:55:33;102459.91;;;-0.83;61.45
64460;BME280;50828;53.756;21.140;2023-02-08T20:00:41;102454.76;;;-0.86;61.17
64460;BME280;50828;53.756;21.140;2023-02-08T20:05:50;102456.17;;;-0.85;61.16
64460;BME280;50828;53.756;21.140;2023-02-08T20:10:58;102456.27;;;-0.86;61.19
64460;BME280;50828;53.756;21.140;2023-02-08T20:16:06;102454.61;;;-0.88;61.30
64460;BME280;50828;53.756;21.140;2023-02-08T20:21:13;102452.99;;;-0.90;61.14
64460;BME280;50828;53.756;21.140;2023-02-08T20:26:23;102445.98;;;-0.93;61.24
64460;BME280;50828;53.756;21.140;2023-02-08T20:31:32;102431.03;;;-0.94;61.21
64460;BME280;50828;53.756;21.140;2023-02-08T20:36:40;102418.69;;;-1.00;61.39
64460;BME280;50828;53.756;21.140;2023-02-08T20:42:06;102415.73;;;-1.00;61.32
64460;BME280;50828;53.756;21.140;2023-02-08T20:47:14;102410.12;;;-1.02;61.37
64460;BME280;50828;53.756;21.140;2023-02-08T20:52:23;102395.70;;;-1.03;61.31
64460;BME280;50828;53.756;21.140;2023-02-08T20:57:31;102386.73;;;-1.06;61.42
64460;BME280;50828;53.756;21.140;2023-02-08T21:02:38;102375.70;;;-1.10;61.49
64460;BME280;50828;53.756;21.140;2023-02-08T21:07:46;102366.41;;;-1.13;61.42
64460;BME280;50828;53.756;21.140;2023-02-08T21:12:54;102358.70;;;-1.15;61.36
64460;BME280;50828;53.756;21.140;2023-02-08T21:18:01;102348.40;;;-1.17;61.32
64460;BME280;50828;53.756;21.140;2023-02-08T21:23:09;102352.90;;;-1.21;61.27
64460;BME280;50828;53.756;21.140;2023-02-08T21:28:17;102350.16;;;-1.24;61.27
64460;BME280;50828;53.756;21.140;2023-02-08T21:33:24;102352.08;;;-1.28;61.25
64460;BME280;50828;53.756;21.140;2023-02-08T21:38:32;102359.35;;;-1.32;61.36
64460;BME280;50828;53.756;21.140;2023-02-08T21:43:39;102363.38;;;-1.34;61.38
64460;BME280;50828;53.756;21.140;2023-02-08T21:48:47;102369.87;;;-1.36;61.46
64460;BME280;50828;53.756;21.140;2023-02-08T21:54:14;102366.36;;;-1.38;61.34
64460;BME280;50828;53.756;21.140;2023-02-08T21:59:39;102364.07;;;-1.38;61.39
64460;BME280;50828;53.756;21.140;2023-02-08T22:04:46;102356.21;;;-1.40;61.25
64460;BME280;50828;53.756;21.140;2023-02-08T22:09:54;102352.38;;;-1.41;61.33
64460;BME280;50828;53.756;21.140;2023-02-08T22:15:02;102343.67;;;-1.42;61.24
64460;BME280;50828;53.756;21.140;2023-02-08T22:20:11;102337.39;;;-1.43;61.25
64460;BME280;50828;53.756;21.140;2023-02-08T22:25:20;102337.52;;;-1.44;61.22
64460;BME280;50828;53.756;21.140;2023-02-08T22:30:28;102333.31;;;-1.46;61.30
64460;BME280;50828;53.756;21.140;2023-02-08T22:35:36;102330.98;;;-1.48;61.22
64460;BME280;50828;53.756;21.140;2023-02-08T22:40:44;102315.35;;;-1.50;61.26
64460;BME280;50828;53.756;21.140;2023-02-08T22:45:58;102312.02;;;-1.51;61.39
64460;BME280;50828;53.756;21.140;2023-02-08T22:51:10;102306.91;;;-1.53;61.27
64460;BME280;50828;53.756;21.140;2023-02-08T22:56:19;102304.55;;;-1.55;61.38
64460;BME280;50828;53.756;21.140;2023-02-08T23:01:27;102298.95;;;-1.57;61.26
64460;BME280;50828;53.756;21.140;2023-02-08T23:06:35;102296.79;;;-1.59;61.43
64460;BME280;50828;53.756;21.140;2023-02-08T23:11:49;102302.72;;;-1.61;61.33
64460;BME280;50828;53.756;21.140;2023-02-08T23:16:56;102299.73;;;-1.62;61.40
64460;BME280;50828;53.756;21.140;2023-02-08T23:22:04;102300.34;;;-1.64;61.29
64460;BME280;50828;53.756;21.140;2023-02-08T23:27:11;102295.06;;;-1.67;61.23
64460;BME280;50828;53.756;21.140;2023-02-08T23:32:19;102295.48;;;-1.69;61.34
64460;BME280;50828;53.756;21.140;2023-02-08T23:37:26;102288.20;;;-1.73;61.38
64460;BME280;50828;53.756;21.140;2023-02-08T23:42:34;102286.52;;;-1.76;61.33
64460;BME280;50828;53.756;21.140;2023-02-08T23:47:41;102286.20;;;-1.79;61.54
64460;BME280;50828;53.756;21.140;2023-02-08T23:52:49;102277.42;;;-1.82;61.44
64460;BME280;50828;53.756;21.140;2023-02-08T23:57:56;102272.14;;;-1.85;61.70
